Time;durP1;ratioP1;P1;durP2;ratioP2;P2;SDS_P1;SDS_P2;PMS_P1;PMS_P2;Temp;Humidity;BMP_temperature;BMP_pressure;BME280_temperature;BME280_humidity;BME280_pressure;Samples;Min_cycle;Max_cycle;Signal;HPM_P1;HPM_P2
2022/08/24 00:01:58;;;;;;;21.95;18.65;;;;;;;;;;4953438;28;20415;-85
2022/08/24 00:04:24;;;;;;;22.23;18.27;;;;;;;;;;4955708;28;20044;-85
2022/08/24 00:06:51;;;;;;;20.33;18.10;;;;;;;;;;4986887;28;20117;-85
2022/08/24 00:09:17;;;;;;;20.90;18.55;;;;;;;;;;4955206;28;20106;-85
2022/08/24 00:11:43;;;;;;;22.95;18.08;;;;;;;;;;4955354;28;20090;-85
2022/08/24 00:14:10;;;;;;;22.50;18.73;;;;;;;;;;4968626;28;20078;-85
2022/08/24 00:16:37;;;;;;;25.15;20.63;;;;;;;;;;4954956;28;20043;-85
2022/08/24 00:19:04;;;;;;;24.15;20.20;;;;;;;;;;4955205;28;20051;-85
2022/08/24 00:21:30;;;;;;;26.38;22.10;;;;;;;;;;4955413;28;20047;-85
2022/08/24 00:23:56;;;;;;;27.35;22.00;;;;;;;;;;4954926;28;20047;-84
2022/08/24 00:26:22;;;;;;;25.25;20.70;;;;;;;;;;4954795;28;20039;-85
2022/08/24 00:28:48;;;;;;;27.02;20.05;;;;;;;;;;4954213;28;20479;-85
2022/08/24 00:31:14;;;;;;;23.08;18.52;;;;;;;;;;4954643;28;20055;-85
2022/08/24 00:33:40;;;;;;;25.77;20.83;;;;;;;;;;4986229;28;20511;-85
2022/08/24 00:36:07;;;;;;;24.40;20.20;;;;;;;;;;4954835;28;20501;-85
2022/08/24 00:38:34;;;;;;;23.70;19.88;;;;;;;;;;4953942;29;20073;-85
2022/08/24 00:41:00;;;;;;;24.38;19.55;;;;;;;;;;4953984;28;20047;-85
2022/08/24 00:43:27;;;;;;;23.38;19.58;;;;;;;;;;4953959;28;20114;-85
2022/08/24 00:46:11;;;;;;;24.75;19.92;;;;;;;;;;4953640;28;20051;-85
2022/08/24 00:48:40;;;;;;;22.85;18.35;;;;;;;;;;4985066;28;20137;-84
2022/08/24 00:51:11;;;;;;;26.17;21.08;;;;;;;;;;4985476;28;20043;-85
2022/08/24 00:53:39;;;;;;;23.35;18.55;;;;;;;;;;4968030;28;20054;-85
2022/08/24 00:56:11;;;;;;;22.42;19.33;;;;;;;;;;4957775;28;20047;-85
2022/08/24 00:58:39;;;;;;;23.67;18.48;;;;;;;;;;4953775;28;20055;-85
2022/08/24 01:01:06;;;;;;;25.35;18.77;;;;;;;;;;4953070;28;20117;-85
2022/08/24 01:03:36;;;;;;;23.23;19.00;;;;;;;;;;4953643;28;20047;-85
2022/08/24 01:06:02;;;;;;;21.90;18.80;;;;;;;;;;4952413;28;20413;-85
2022/08/24 01:08:28;;;;;;;23.55;18.35;;;;;;;;;;4954117;28;20047;-85
2022/08/24 01:10:58;;;;;;;19.98;17.60;;;;;;;;;;4953568;28;20054;-85
2022/08/24 01:13:24;;;;;;;22.85;19.58;;;;;;;;;;4953673;28;20052;-85
2022/08/24 01:15:52;;;;;;;20.58;17.67;;;;;;;;;;4985222;28;20043;-85
2022/08/24 01:21:11;;;;;;;19.63;16.38;;;;;;;;;;4954072;28;20079;-85
2022/08/24 01:23:42;;;;;;;21.65;17.85;;;;;;;;;;4953787;28;20051;-85
2022/08/24 01:26:10;;;;;;;19.83;16.60;;;;;;;;;;4952036;28;20055;-84
2022/08/24 01:28:38;;;;;;;18.90;16.20;;;;;;;;;;4953721;28;20114;-85
2022/08/24 01:31:05;;;;;;;20.02;16.98;;;;;;;;;;4953994;28;20078;-85
2022/08/24 01:33:31;;;;;;;17.77;15.45;;;;;;;;;;4954269;28;20039;-85
2022/08/24 01:36:00;;;;;;;19.98;16.00;;;;;;;;;;4984540;28;20051;-85
2022/08/24 01:38:27;;;;;;;17.58;15.63;;;;;;;;;;4934824;29;20048;-85
2022/08/24 01:40:56;;;;;;;17.70;15.40;;;;;;;;;;4946913;28;20051;-85
2022/08/24 01:43:23;;;;;;;16.27;14.57;;;;;;;;;;4952132;28;20051;-85
2022/08/24 01:45:49;;;;;;;16.02;14.40;;;;;;;;;;4953926;28;20049;-85
2022/08/24 01:48:15;;;;;;;17.23;15.43;;;;;;;;;;4984063;28;20067;-84
2022/08/24 01:50:42;;;;;;;18.75;16.83;;;;;;;;;;4953883;28;20110;-85
2022/08/24 01:53:08;;;;;;;16.98;15.18;;;;;;;;;;4952073;28;20039;-85
2022/08/24 01:55:35;;;;;;;16.92;14.57;;;;;;;;;;4951307;28;20503;-84
2022/08/24 01:58:01;;;;;;;15.73;14.02;;;;;;;;;;4983253;28;20138;-85
2022/08/24 02:00:28;;;;;;;15.70;14.02;;;;;;;;;;4951982;29;20047;-85
2022/08/24 02:02:55;;;;;;;15.07;13.48;;;;;;;;;;4953360;28;20043;-85
2022/08/24 02:05:22;;;;;;;14.48;12.98;;;;;;;;;;4953103;28;20051;-85
2022/08/24 02:07:48;;;;;;;15.32;13.73;;;;;;;;;;4953443;28;20389;-85
2022/08/24 02:10:14;;;;;;;15.20;13.68;;;;;;;;;;4953415;28;20511;-85
2022/08/24 02:12:41;;;;;;;25.20;14.50;;;;;;;;;;4953212;28;20035;-85
2022/08/24 02:15:09;;;;;;;18.17;15.50;;;;;;;;;;4983113;28;20550;-85
2022/08/24 02:17:36;;;;;;;20.10;17.15;;;;;;;;;;4953511;28;20101;-85
2022/08/24 02:20:03;;;;;;;27.98;23.08;;;;;;;;;;4951883;29;20058;-85
2022/08/24 02:22:29;;;;;;;30.73;25.25;;;;;;;;;;4950786;28;20039;-85
2022/08/24 02:24:55;;;;;;;30.30;25.42;;;;;;;;;;4983908;28;20054;-85
2022/08/24 02:27:21;;;;;;;30.88;24.67;;;;;;;;;;4951946;28;20039;-85
2022/08/24 02:29:47;;;;;;;29.00;25.27;;;;;;;;;;4953427;28;20050;-85
2022/08/24 02:32:13;;;;;;;21.88;18.88;;;;;;;;;;4950600;28;20117;-85
2022/08/24 02:34:39;;;;;;;27.20;22.13;;;;;;;;;;4951919;28;20051;-85
2022/08/24 02:37:05;;;;;;;26.42;21.90;;;;;;;;;;4951558;28;20130;-85
2022/08/24 02:39:31;;;;;;;26.92;21.80;;;;;;;;;;4983323;28;20047;-84
2022/08/24 02:41:57;;;;;;;20.52;17.17;;;;;;;;;;4952814;28;20496;-85
2022/08/24 02:44:23;;;;;;;22.65;18.48;;;;;;;;;;4951897;28;20142;-85
2022/08/24 02:46:49;;;;;;;25.10;20.70;;;;;;;;;;4953168;28;20051;-84
2022/08/24 02:49:17;;;;;;;29.20;23.90;;;;;;;;;;4950605;28;20501;-85
2022/08/24 02:51:45;;;;;;;27.10;22.08;;;;;;;;;;4952442;28;20051;-85
2022/08/24 02:54:11;;;;;;;27.15;21.40;;;;;;;;;;4968869;28;20380;-85
2022/08/24 02:56:37;;;;;;;28.13;22.55;;;;;;;;;;4952943;28;20130;-85
2022/08/24 02:59:03;;;;;;;27.38;23.40;;;;;;;;;;4952089;28;20039;-85
2022/08/24 03:01:29;;;;;;;26.42;19.80;;;;;;;;;;4952893;28;20093;-85
2022/08/24 03:03:56;;;;;;;29.88;23.20;;;;;;;;;;4952581;28;20448;-85
2022/08/24 03:06:22;;;;;;;26.27;21.70;;;;;;;;;;4951765;28;20059;-85
2022/08/24 03:08:49;;;;;;;27.88;22.00;;;;;;;;;;4953101;28;20046;-85
2022/08/24 03:11:16;;;;;;;27.38;23.23;;;;;;;;;;4956083;28;20516;-85
2022/08/24 03:13:42;;;;;;;28.85;23.25;;;;;;;;;;4955352;28;20039;-85
2022/08/24 03:16:08;;;;;;;25.10;21.63;;;;;;;;;;4987655;28;20134;-85
2022/08/24 03:18:35;;;;;;;29.83;23.98;;;;;;;;;;4955259;28;20138;-85
2022/08/24 03:21:02;;;;;;;33.92;21.75;;;;;;;;;;4986852;28;20114;-85
2022/08/24 03:23:28;;;;;;;27.95;23.30;;;;;;;;;;4955723;28;20043;-85
2022/08/24 03:25:55;;;;;;;27.27;22.88;;;;;;;;;;4956564;28;20054;-85
2022/08/24 03:28:22;;;;;;;26.10;21.98;;;;;;;;;;4955261;28;20056;-84
2022/08/24 03:30:49;;;;;;;24.02;21.38;;;;;;;;;;4956396;28;20043;-85
2022/08/24 03:33:15;;;;;;;28.00;21.40;;;;;;;;;;4955799;28;20186;-85
2022/08/24 03:35:41;;;;;;;27.58;22.98;;;;;;;;;;4956034;28;20045;-85
2022/08/24 03:38:07;;;;;;;25.35;20.27;;;;;;;;;;4955878;28;20058;-84
2022/08/24 03:40:33;;;;;;;26.15;20.67;;;;;;;;;;4955093;29;20416;-84
2022/08/24 03:43:00;;;;;;;28.10;22.90;;;;;;;;;;4953423;28;20509;-85
2022/08/24 03:45:26;;;;;;;25.40;19.90;;;;;;;;;;4955982;28;20061;-85
2022/08/24 03:47:52;;;;;;;23.08;19.10;;;;;;;;;;4955450;28;20500;-85
2022/08/24 03:50:19;;;;;;;27.30;18.17;;;;;;;;;;4955525;28;20113;-85
2022/08/24 03:52:45;;;;;;;19.95;16.42;;;;;;;;;;4993226;28;20062;-85
2022/08/24 03:55:12;;;;;;;17.70;14.75;;;;;;;;;;4972202;28;20421;-85
2022/08/24 03:57:38;;;;;;;16.85;15.13;;;;;;;;;;4936606;28;20046;-85
2022/08/24 04:00:05;;;;;;;19.02;15.50;;;;;;;;;;4955167;28;20500;-85
2022/08/24 04:02:32;;;;;;;18.88;15.48;;;;;;;;;;4954330;28;20054;-85
2022/08/24 04:04:58;;;;;;;22.30;18.48;;;;;;;;;;4955092;28;20086;-84
2022/08/24 04:07:24;;;;;;;23.73;18.90;;;;;;;;;;4955296;28;20094;-85
2022/08/24 04:09:50;;;;;;;23.40;19.27;;;;;;;;;;4955719;28;20102;-85
2022/08/24 04:12:16;;;;;;;21.48;18.63;;;;;;;;;;4952960;28;20051;-84
2022/08/24 04:14:43;;;;;;;21.75;18.00;;;;;;;;;;4954477;29;20050;-85
2022/08/24 04:17:11;;;;;;;22.70;19.13;;;;;;;;;;4955010;28;20081;-85
2022/08/24 04:19:56;;;;;;;25.33;20.27;;;;;;;;;;4953954;29;20058;-85
2022/08/24 04:22:22;;;;;;;25.45;21.02;;;;;;;;;;4954659;28;20039;-85
2022/08/24 04:24:48;;;;;;;29.05;22.05;;;;;;;;;;4953966;28;20122;-85
2022/08/24 04:27:14;;;;;;;25.38;21.98;;;;;;;;;;4953225;28;20059;-85
2022/08/24 04:29:40;;;;;;;33.05;25.27;;;;;;;;;;4952545;28;20043;-85
2022/08/24 04:32:06;;;;;;;28.33;23.35;;;;;;;;;;4985811;28;20047;-85
2022/08/24 04:34:32;;;;;;;35.35;25.88;;;;;;;;;;4954891;28;20051;-85
2022/08/24 04:36:59;;;;;;;30.98;26.02;;;;;;;;;;4953282;28;20089;-85
2022/08/24 04:39:25;;;;;;;42.63;30.10;;;;;;;;;;4954135;28;20054;-85
2022/08/24 04:41:51;;;;;;;34.15;28.50;;;;;;;;;;4953959;28;20059;-85
2022/08/24 04:44:17;;;;;;;33.28;27.13;;;;;;;;;;4953165;28;20047;-85
2022/08/24 04:46:43;;;;;;;33.38;27.20;;;;;;;;;;4954251;28;20396;-84
2022/08/24 04:49:10;;;;;;;32.42;27.80;;;;;;;;;;4953938;28;20059;-85
2022/08/24 04:51:36;;;;;;;31.95;26.63;;;;;;;;;;4954604;28;20141;-85
2022/08/24 04:54:02;;;;;;;35.55;28.85;;;;;;;;;;4969882;28;20057;-85
2022/08/24 04:56:28;;;;;;;37.00;27.20;;;;;;;;;;4954776;28;20053;-85
2022/08/24 04:58:54;;;;;;;35.80;29.08;;;;;;;;;;4984912;28;20169;-85
2022/08/24 05:01:22;;;;;;;34.17;28.42;;;;;;;;;;4952685;28;20538;-85
2022/08/24 05:03:49;;;;;;;33.45;28.35;;;;;;;;;;4953520;28;20047;-84
2022/08/24 05:06:17;;;;;;;38.30;28.20;;;;;;;;;;4954164;28;20498;-85
2022/08/24 05:08:45;;;;;;;33.15;27.75;;;;;;;;;;4954584;28;20054;-85
2022/08/24 05:11:12;;;;;;;35.80;28.35;;;;;;;;;;4954142;28;20106;-85
2022/08/24 05:13:38;;;;;;;33.67;28.65;;;;;;;;;;4953592;28;20464;-85
2022/08/24 05:16:08;;;;;;;39.92;30.75;;;;;;;;;;4954261;28;20130;-85
2022/08/24 05:18:35;;;;;;;39.78;31.77;;;;;;;;;;4953507;28;20051;-85
2022/08/24 05:21:01;;;;;;;43.45;32.85;;;;;;;;;;4984332;28;20073;-85
2022/08/24 05:23:29;;;;;;;47.30;33.92;;;;;;;;;;4954209;28;20047;-85
2022/08/24 05:26:04;;;;;;;39.55;30.27;;;;;;;;;;4953859;28;20051;-85
2022/08/24 05:28:30;;;;;;;36.90;29.37;;;;;;;;;;4953491;28;20401;-84
2022/08/24 05:30:56;;;;;;;35.33;27.98;;;;;;;;;;4953084;28;20475;-84
2022/08/24 05:33:22;;;;;;;40.05;29.17;;;;;;;;;;4953228;28;20134;-84
2022/08/24 05:35:49;;;;;;;35.72;29.38;;;;;;;;;;4953937;28;20118;-85
2022/08/24 05:38:15;;;;;;;35.35;28.00;;;;;;;;;;4952092;28;20129;-85
2022/08/24 05:40:41;;;;;;;34.80;27.65;;;;;;;;;;4954128;28;20051;-84
2022/08/24 05:43:07;;;;;;;32.20;26.88;;;;;;;;;;4951798;28;20047;-84
2022/08/24 05:45:33;;;;;;;33.03;27.08;;;;;;;;;;4952936;28;20101;-85
2022/08/24 05:47:59;;;;;;;29.08;25.63;;;;;;;;;;4953088;28;20497;-85
2022/08/24 05:50:25;;;;;;;33.05;26.40;;;;;;;;;;4953957;28;20097;-85
2022/08/24 05:52:51;;;;;;;27.80;24.80;;;;;;;;;;4960808;28;20046;-85
2022/08/24 05:55:17;;;;;;;31.55;24.30;;;;;;;;;;4969416;28;20405;-86
2022/08/24 05:57:44;;;;;;;30.42;24.40;;;;;;;;;;4953472;28;20409;-86
2022/08/24 06:00:11;;;;;;;31.25;23.40;;;;;;;;;;4983458;28;20170;-84
2022/08/24 06:02:37;;;;;;;27.20;23.63;;;;;;;;;;4953810;28;20043;-88
2022/08/24 06:05:03;;;;;;;27.80;23.80;;;;;;;;;;4951597;28;20398;-83
2022/08/24 06:07:29;;;;;;;29.73;23.38;;;;;;;;;;4952413;28;20118;-86
2022/08/24 06:09:56;;;;;;;27.30;22.73;;;;;;;;;;4952024;28;20099;-84
2022/08/24 06:12:22;;;;;;;30.38;23.45;;;;;;;;;;4953113;28;20369;-84
2022/08/24 06:14:48;;;;;;;27.58;22.92;;;;;;;;;;4950622;28;20419;-84
2022/08/24 06:17:14;;;;;;;26.27;22.48;;;;;;;;;;4952502;28;20043;-84
2022/08/24 06:19:42;;;;;;;27.48;21.38;;;;;;;;;;4953151;28;20043;-84
2022/08/24 06:22:08;;;;;;;25.73;21.52;;;;;;;;;;4952846;28;20047;-84
2022/08/24 06:27:20;;;;;;;22.45;19.75;;;;;;;;;;4984407;28;20055;-84
2022/08/24 06:29:46;;;;;;;23.52;20.73;;;;;;;;;;4983170;28;20227;-84
2022/08/24 06:32:12;;;;;;;22.25;18.77;;;;;;;;;;4951468;28;20554;-84
2022/08/24 06:34:38;;;;;;;23.23;19.48;;;;;;;;;;4951722;29;20047;-86
2022/08/24 06:37:05;;;;;;;21.92;17.98;;;;;;;;;;4983356;28;20572;-84
2022/08/24 06:39:31;;;;;;;22.40;18.45;;;;;;;;;;4952137;28;20113;-84
2022/08/24 06:41:57;;;;;;;21.45;18.35;;;;;;;;;;4951585;28;20051;-84
2022/08/24 06:44:23;;;;;;;23.08;19.48;;;;;;;;;;4953635;28;20118;-84
2022/08/24 06:46:51;;;;;;;24.77;19.60;;;;;;;;;;4968976;28;20091;-84
2022/08/24 06:49:17;;;;;;;21.02;18.75;;;;;;;;;;4957330;28;20063;-84
2022/08/24 06:51:44;;;;;;;24.05;19.80;;;;;;;;;;4959210;28;20078;-84
2022/08/24 06:54:10;;;;;;;22.33;19.25;;;;;;;;;;4991000;28;20101;-86
2022/08/24 06:56:36;;;;;;;21.77;19.30;;;;;;;;;;4965907;28;20129;-87
2022/08/24 06:59:03;;;;;;;22.40;19.13;;;;;;;;;;4976686;28;20050;-86
2022/08/24 07:01:29;;;;;;;23.55;19.00;;;;;;;;;;4977687;28;20480;-84
2022/08/24 07:03:55;;;;;;;21.30;19.10;;;;;;;;;;4961730;28;20469;-85
2022/08/24 07:06:22;;;;;;;21.98;18.40;;;;;;;;;;4990291;28;20540;-85
2022/08/24 07:08:48;;;;;;;23.38;18.80;;;;;;;;;;4990379;28;20043;-85
2022/08/24 07:11:16;;;;;;;20.88;18.48;;;;;;;;;;4989010;28;20058;-87
2022/08/24 07:13:43;;;;;;;22.95;18.70;;;;;;;;;;4957983;28;20504;-83
2022/08/24 07:16:09;;;;;;;23.38;18.63;;;;;;;;;;4989847;28;20448;-87
2022/08/24 07:18:35;;;;;;;22.17;18.77;;;;;;;;;;4958446;28;20046;-84
2022/08/24 07:21:02;;;;;;;22.33;17.85;;;;;;;;;;4957862;28;20039;-87
2022/08/24 07:23:28;;;;;;;22.52;17.88;;;;;;;;;;4971326;28;20039;-87
2022/08/24 07:25:54;;;;;;;22.30;17.98;;;;;;;;;;4975539;28;20464;-88
2022/08/24 07:28:20;;;;;;;19.98;17.10;;;;;;;;;;4962482;28;20139;-88
2022/08/24 07:30:46;;;;;;;17.85;15.95;;;;;;;;;;4989948;28;20051;-90
2022/08/24 07:33:13;;;;;;;21.10;15.98;;;;;;;;;;4989650;28;20131;-87
2022/08/24 07:35:39;;;;;;;22.60;15.52;;;;;;;;;;4989530;28;20069;-87
2022/08/24 07:38:07;;;;;;;20.90;15.60;;;;;;;;;;4988040;28;20047;-89
2022/08/24 07:40:34;;;;;;;20.10;16.45;;;;;;;;;;4989079;28;20104;-90
2022/08/24 07:43:00;;;;;;;20.02;15.80;;;;;;;;;;4976978;28;20393;-91
2022/08/24 07:45:27;;;;;;;19.20;16.38;;;;;;;;;;4960642;28;20122;-88
2022/08/24 07:47:53;;;;;;;20.75;15.60;;;;;;;;;;4958568;28;20417;-91
2022/08/24 07:50:19;;;;;;;22.45;15.95;;;;;;;;;;4958474;28;20239;-87
2022/08/24 07:52:46;;;;;;;20.08;15.73;;;;;;;;;;4959774;28;20046;-86
2022/08/24 07:55:12;;;;;;;16.42;14.25;;;;;;;;;;4986238;28;20051;-87
2022/08/24 07:57:39;;;;;;;25.70;15.43;;;;;;;;;;4952400;28;20480;-87
2022/08/24 08:00:06;;;;;;;18.25;14.15;;;;;;;;;;4950563;28;20049;-88
2022/08/24 08:02:32;;;;;;;17.10;15.30;;;;;;;;;;4955903;28;20047;-88
2022/08/24 08:04:59;;;;;;;21.60;16.15;;;;;;;;;;4954356;28;20575;-87
2022/08/24 08:07:25;;;;;;;19.00;14.50;;;;;;;;;;4984624;28;20075;-87
2022/08/24 08:09:51;;;;;;;15.98;14.25;;;;;;;;;;4986245;28;20134;-88
2022/08/24 08:12:18;;;;;;;18.83;15.05;;;;;;;;;;4953803;28;20461;-88
2022/08/24 08:14:45;;;;;;;16.38;13.68;;;;;;;;;;4952419;28;20062;-87
2022/08/24 08:17:13;;;;;;;17.05;14.18;;;;;;;;;;4958219;28;20049;-87
2022/08/24 08:19:39;;;;;;;17.17;14.20;;;;;;;;;;4953195;28;20395;-87
2022/08/24 08:24:50;;;;;;;17.40;13.05;;;;;;;;;;4950618;28;20583;-87
2022/08/24 08:27:16;;;;;;;14.95;12.90;;;;;;;;;;4956676;28;20146;-87
2022/08/24 08:29:43;;;;;;;15.43;11.40;;;;;;;;;;4942168;28;20047;-87
2022/08/24 08:32:13;;;;;;;16.65;11.98;;;;;;;;;;4952457;28;20039;-87
2022/08/24 08:34:39;;;;;;;15.55;13.68;;;;;;;;;;4985203;28;20055;-88
2022/08/24 08:37:06;;;;;;;12.50;11.07;;;;;;;;;;4975374;23;20050;-88
2022/08/24 08:39:32;;;;;;;11.13;9.95;;;;;;;;;;4970183;28;20351;-92
2022/08/24 08:42:05;;;;;;;13.65;10.95;;;;;;;;;;4989093;28;20125;-89
2022/08/24 08:44:35;;;;;;;12.35;10.95;;;;;;;;;;4957067;28;20126;-88
2022/08/24 08:47:19;;;;;;;18.83;11.75;;;;;;;;;;4974484;28;20134;-91
2022/08/24 08:50:04;;;;;;;13.95;12.27;;;;;;;;;;4972820;28;20046;-88
2022/08/24 08:52:50;;;;;;;13.63;10.55;;;;;;;;;;4971713;28;20120;-88
2022/08/24 08:55:35;;;;;;;16.23;11.13;;;;;;;;;;4973334;28;20408;-87
2022/08/24 08:58:17;;;;;;;12.05;10.63;;;;;;;;;;4994074;28;20482;-88
2022/08/24 09:01:01;;;;;;;14.38;10.07;;;;;;;;;;4973985;28;20069;-89
2022/08/24 09:03:43;;;;;;;13.63;9.98;;;;;;;;;;4974317;28;20047;-91
2022/08/24 09:06:21;;;;;;;11.18;10.02;;;;;;;;;;4972728;28;20049;-89
2022/08/24 09:08:52;;;;;;;11.60;10.25;;;;;;;;;;4972991;28;20139;-89
2022/08/24 09:11:48;;;;;;;11.00;9.85;;;;;;;;;;4970719;28;20615;-87
2022/08/24 09:14:14;;;;;;;12.40;10.68;;;;;;;;;;4911375;29;20052;-88
2022/08/24 09:16:43;;;;;;;12.68;9.63;;;;;;;;;;4928783;29;20058;-88
2022/08/24 09:19:27;;;;;;;10.98;8.45;;;;;;;;;;4914284;29;20056;-93
2022/08/24 09:22:12;;;;;;;11.85;9.82;;;;;;;;;;4913669;29;20044;-86
2022/08/24 09:24:58;;;;;;;11.00;9.10;;;;;;;;;;4911632;29;20111;-85
2022/08/24 09:27:27;;;;;;;12.02;8.57;;;;;;;;;;4913680;29;20046;-85
2022/08/24 09:30:02;;;;;;;10.02;8.93;;;;;;;;;;4913623;29;20461;-85
2022/08/24 09:32:28;;;;;;;9.23;8.32;;;;;;;;;;4910154;29;20143;-90
2022/08/24 09:35:02;;;;;;;13.00;8.70;;;;;;;;;;4929094;29;20564;-90
2022/08/24 09:37:43;;;;;;;10.50;8.43;;;;;;;;;;4897016;29;20183;-90
2022/08/24 09:40:34;;;;;;;9.88;8.15;;;;;;;;;;4919155;29;20048;-89
2022/08/24 09:43:18;;;;;;;12.50;8.85;;;;;;;;;;4930411;29;20052;-87
2022/08/24 09:45:50;;;;;;;11.75;8.02;;;;;;;;;;4925250;29;20051;-87
2022/08/24 09:48:37;;;;;;;10.95;8.15;;;;;;;;;;4910182;29;20048;-87
2022/08/24 09:51:27;;;;;;;11.68;8.27;;;;;;;;;;4944260;28;20051;-87
2022/08/24 09:53:53;;;;;;;9.02;7.53;;;;;;;;;;4930214;29;20051;-86
2022/08/24 09:56:25;;;;;;;10.27;8.82;;;;;;;;;;4930718;29;20055;-87
2022/08/24 09:58:57;;;;;;;8.77;7.22;;;;;;;;;;4931812;29;20067;-87
2022/08/24 10:01:33;;;;;;;8.63;7.25;;;;;;;;;;4915036;29;20453;-86
2022/08/24 10:04:19;;;;;;;15.80;9.55;;;;;;;;;;4933015;29;20039;-86
2022/08/24 10:07:15;;;;;;;8.98;8.07;;;;;;;;;;4906183;29;20043;-86
2022/08/24 10:09:59;;;;;;;7.50;6.47;;;;;;;;;;4919372;29;20399;-85
2022/08/24 10:12:44;;;;;;;8.43;7.05;;;;;;;;;;4932150;29;20048;-88
2022/08/24 10:15:14;;;;;;;11.93;7.47;;;;;;;;;;4931397;29;20151;-85
2022/08/24 10:17:59;;;;;;;7.55;6.28;;;;;;;;;;4915189;29;20429;-85
2022/08/24 10:20:40;;;;;;;7.22;6.13;;;;;;;;;;4931008;29;20047;-85
2022/08/24 10:23:24;;;;;;;9.57;7.05;;;;;;;;;;4907086;29;20040;-85
2022/08/24 10:26:06;;;;;;;8.63;6.60;;;;;;;;;;4915872;29;20078;-86
2022/08/24 10:28:38;;;;;;;7.05;5.80;;;;;;;;;;4931684;29;20492;-85
2022/08/24 10:31:09;;;;;;;6.32;5.55;;;;;;;;;;4946989;28;20472;-85
2022/08/24 10:33:38;;;;;;;6.68;6.03;;;;;;;;;;4970851;28;20075;-85
2022/08/24 10:36:16;;;;;;;6.50;5.25;;;;;;;;;;4969847;28;20039;-86
2022/08/24 10:41:51;;;;;;;5.68;4.70;;;;;;;;;;4972637;28;20057;-86
2022/08/24 10:44:39;;;;;;;7.07;5.65;;;;;;;;;;4971886;28;20046;-85
2022/08/24 10:47:27;;;;;;;6.95;5.40;;;;;;;;;;5003889;28;20039;-86
2022/08/24 10:50:11;;;;;;;7.93;5.07;;;;;;;;;;4970629;28;20055;-86
2022/08/24 10:52:40;;;;;;;7.82;5.72;;;;;;;;;;4970960;28;20062;-86
2022/08/24 10:55:14;;;;;;;7.85;7.13;;;;;;;;;;4971739;28;20043;-86
2022/08/24 10:57:55;;;;;;;7.30;5.85;;;;;;;;;;5003521;28;20074;-86
2022/08/24 11:00:26;;;;;;;6.80;5.90;;;;;;;;;;4971598;28;20054;-86
2022/08/24 11:03:04;;;;;;;8.32;6.10;;;;;;;;;;4972243;28;20047;-86
2022/08/24 11:05:34;;;;;;;8.77;5.30;;;;;;;;;;4970389;28;20125;-89
2022/08/24 11:08:03;;;;;;;6.05;4.70;;;;;;;;;;4970616;28;20098;-83
2022/08/24 11:10:32;;;;;;;6.90;5.60;;;;;;;;;;4970745;28;20126;-84
2022/08/24 11:13:16;;;;;;;7.50;5.40;;;;;;;;;;5003219;28;20464;-85
2022/08/24 11:15:47;;;;;;;5.03;4.53;;;;;;;;;;4970823;28;20097;-89
2022/08/24 11:18:13;;;;;;;7.28;4.40;;;;;;;;;;5001934;28;20053;-85
2022/08/24 11:20:41;;;;;;;4.75;3.80;;;;;;;;;;4970819;28;20042;-85
2022/08/24 11:23:14;;;;;;;5.90;3.92;;;;;;;;;;4971435;28;20535;-85
2022/08/24 11:25:45;;;;;;;5.07;3.88;;;;;;;;;;4970931;28;20329;-86
2022/08/24 11:28:17;;;;;;;5.18;3.58;;;;;;;;;;5002691;28;20531;-85
2022/08/24 11:30:43;;;;;;;7.00;4.90;;;;;;;;;;4967822;28;20518;-85
2022/08/24 11:33:39;;;;;;;6.85;5.18;;;;;;;;;;4973025;28;20047;-85
2022/08/24 11:36:13;;;;;;;6.00;5.40;;;;;;;;;;4965050;28;20122;-85
2022/08/24 11:38:39;;;;;;;4.63;4.10;;;;;;;;;;4974183;28;20059;-85
2022/08/24 11:41:19;;;;;;;4.03;2.85;;;;;;;;;;4974818;28;20049;-85
2022/08/24 11:44:00;;;;;;;3.92;2.88;;;;;;;;;;4975164;28;20039;-85
2022/08/24 11:46:39;;;;;;;5.15;3.20;;;;;;;;;;4974390;28;20050;-85
2022/08/24 11:49:24;;;;;;;4.82;2.90;;;;;;;;;;4973945;28;20054;-85
2022/08/24 11:51:53;;;;;;;2.65;2.38;;;;;;;;;;4974664;28;20443;-85
2022/08/24 11:54:42;;;;;;;2.78;2.40;;;;;;;;;;4973120;28;20050;-85
2022/08/24 11:57:14;;;;;;;3.15;2.50;;;;;;;;;;4974538;28;20050;-86
2022/08/24 11:59:40;;;;;;;2.90;2.10;;;;;;;;;;4973335;28;20130;-85
2022/08/24 12:02:35;;;;;;;2.70;1.90;;;;;;;;;;4973411;28;20470;-85
2022/08/24 12:05:06;;;;;;;3.10;2.10;;;;;;;;;;4948254;28;20508;-85
2022/08/24 12:07:41;;;;;;;2.65;2.10;;;;;;;;;;4973353;28;20046;-86
2022/08/24 12:10:13;;;;;;;2.60;2.40;;;;;;;;;;4973178;28;20047;-85
2022/08/24 12:12:39;;;;;;;4.70;2.50;;;;;;;;;;5005681;28;20069;-85
2022/08/24 12:15:17;;;;;;;2.58;2.00;;;;;;;;;;4974216;28;20065;-85
2022/08/24 12:17:50;;;;;;;2.20;2.00;;;;;;;;;;4970675;28;20054;-88
2022/08/24 12:20:26;;;;;;;1.80;1.60;;;;;;;;;;4974368;28;20074;-84
2022/08/24 12:22:54;;;;;;;2.20;1.80;;;;;;;;;;4974896;28;20125;-86
2022/08/24 12:28:06;;;;;;;7.97;7.03;;;;;;;;;;4972696;28;20046;-86
2022/08/24 12:30:32;;;;;;;8.15;7.35;;;;;;;;;;4974331;28;20050;-86
2022/08/24 12:33:01;;;;;;;8.50;6.80;;;;;;;;;;4974971;28;20047;-87
2022/08/24 12:35:31;;;;;;;10.07;6.53;;;;;;;;;;4973591;28;20142;-85
2022/08/24 12:38:08;;;;;;;9.10;6.80;;;;;;;;;;4956895;28;20055;-85
2022/08/24 12:40:40;;;;;;;7.55;6.20;;;;;;;;;;4975019;28;20412;-91
2022/08/24 12:43:18;;;;;;;7.63;6.35;;;;;;;;;;4971252;28;20126;-89
2022/08/24 12:45:45;;;;;;;8.63;7.40;;;;;;;;;;4974122;28;20133;-87
2022/08/24 12:48:27;;;;;;;9.60;8.13;;;;;;;;;;4975885;28;20073;-89
2022/08/24 12:51:10;;;;;;;12.95;8.02;;;;;;;;;;4973300;28;20104;-87
2022/08/24 12:53:51;;;;;;;9.57;8.57;;;;;;;;;;4974327;28;20054;-85
2022/08/24 12:56:17;;;;;;;15.63;10.70;;;;;;;;;;4974235;28;20054;-86
2022/08/24 12:58:48;;;;;;;13.57;12.18;;;;;;;;;;4971480;28;20051;-85
2022/08/24 13:01:15;;;;;;;12.13;10.75;;;;;;;;;;4972928;28;20087;-85
2022/08/24 13:03:42;;;;;;;11.27;9.85;;;;;;;;;;4957035;28;20130;-85
2022/08/24 13:06:16;;;;;;;11.43;10.27;;;;;;;;;;4973735;28;20055;-85
2022/08/24 13:08:44;;;;;;;12.90;11.50;;;;;;;;;;4972449;28;20125;-85
2022/08/24 13:11:31;;;;;;;12.75;10.70;;;;;;;;;;4973290;28;20047;-95
2022/08/24 13:13:57;;;;;;;10.80;9.75;;;;;;;;;;4969557;28;20097;-85
2022/08/24 13:16:42;;;;;;;11.30;10.20;;;;;;;;;;4972443;28;20081;-85
2022/08/24 13:19:29;;;;;;;10.73;9.53;;;;;;;;;;4972545;28;20066;-85
2022/08/24 13:21:57;;;;;;;10.60;8.68;;;;;;;;;;4970093;28;20880;-83
2022/08/24 13:24:29;;;;;;;13.35;12.05;;;;;;;;;;4967149;28;20272;-85
2022/08/24 13:27:11;;;;;;;11.60;10.40;;;;;;;;;;4970764;28;20043;-85
2022/08/24 13:29:38;;;;;;;13.32;10.85;;;;;;;;;;4972266;28;20388;-85
2022/08/24 13:32:05;;;;;;;12.18;10.95;;;;;;;;;;4970135;28;20105;-85
2022/08/24 13:34:40;;;;;;;11.57;9.95;;;;;;;;;;4972072;28;20051;-85
2022/08/24 13:37:18;;;;;;;10.00;8.95;;;;;;;;;;4969542;28;20108;-85
2022/08/24 13:39:54;;;;;;;12.48;10.85;;;;;;;;;;4971631;28;20058;-85
2022/08/24 13:42:20;;;;;;;;;;;;;;;;;;4972635;28;20050;-85
2022/08/24 13:45:05;;;;;;;14.15;12.65;;;;;;;;;;4972578;28;19988;-86
2022/08/24 13:47:34;;;;;;;14.60;12.15;;;;;;;;;;4966493;28;20047;-85
2022/08/24 13:50:09;;;;;;;12.57;11.15;;;;;;;;;;4971554;28;20050;-85
2022/08/24 13:52:38;;;;;;;13.27;10.70;;;;;;;;;;4970933;28;20053;-85
2022/08/24 13:55:04;;;;;;;11.75;10.45;;;;;;;;;;4972271;28;20097;-85
2022/08/24 13:57:40;;;;;;;12.95;10.48;;;;;;;;;;4972927;28;20047;-86
2022/08/24 14:00:13;;;;;;;11.32;9.80;;;;;;;;;;4968147;28;20097;-85
2022/08/24 14:02:54;;;;;;;10.13;8.93;;;;;;;;;;4971281;28;20158;-85
2022/08/24 14:05:29;;;;;;;13.68;10.93;;;;;;;;;;4970634;28;20047;-85
2022/08/24 14:08:15;;;;;;;10.30;8.88;;;;;;;;;;4972939;28;20047;-85
2022/08/24 14:11:01;;;;;;;9.98;8.98;;;;;;;;;;4970986;28;20047;-85
2022/08/24 14:13:31;;;;;;;9.82;8.90;;;;;;;;;;4965363;28;20070;-85
2022/08/24 14:19:08;;;;;;;11.35;8.82;;;;;;;;;;4971523;28;20050;-85
2022/08/24 14:21:49;;;;;;;11.17;8.73;;;;;;;;;;4967081;28;20141;-85
2022/08/24 14:24:36;;;;;;;9.20;8.13;;;;;;;;;;4971432;28;20480;-87
2022/08/24 14:27:07;;;;;;;10.30;9.15;;;;;;;;;;4987599;28;20051;-86
2022/08/24 14:29:39;;;;;;;9.82;8.77;;;;;;;;;;4971401;28;20054;-86
2022/08/24 14:32:05;;;;;;;10.48;8.35;;;;;;;;;;4971081;28;20566;-86
2022/08/24 14:34:47;;;;;;;9.00;7.78;;;;;;;;;;4972665;28;20043;-85
2022/08/24 14:37:13;;;;;;;9.65;8.23;;;;;;;;;;4970804;28;20098;-88
2022/08/24 14:39:39;;;;;;;9.13;8.27;;;;;;;;;;4969602;28;20093;-86
2022/08/24 14:42:05;;;;;;;11.02;9.05;;;;;;;;;;4971500;28;20042;-86
2022/08/24 14:44:37;;;;;;;10.45;8.82;;;;;;;;;;4969342;28;20046;-86
2022/08/24 14:47:07;;;;;;;9.52;8.63;;;;;;;;;;4952906;29;20496;-85
2022/08/24 14:49:43;;;;;;;10.32;7.63;;;;;;;;;;4999128;28;20082;-85
2022/08/24 14:52:21;;;;;;;8.68;7.75;;;;;;;;;;4972045;28;20105;-86
2022/08/24 14:54:50;;;;;;;9.40;7.45;;;;;;;;;;4971809;28;20051;-86
2022/08/24 14:57:27;;;;;;;8.95;8.05;;;;;;;;;;4970606;28;20054;-86
2022/08/24 15:00:10;;;;;;;10.13;8.48;;;;;;;;;;4970390;28;20047;-86